Op dit moment wordt er hard gewerkt aan deze versie van Weerstation-Wijk.nl
Het kan zijn dat er dingen nog niet helemaal kloppen of goed werken.
Extreme hitte van: 11-08-2020 04:00 tot: 13-08-2020 04:00 waarschuwing voor: Extreme hitte niveau: Geel info button
De komende dagen is er sprake van aanhoudende hitte.Het Nationaal Hitteplan van het RIVM is actief.Er is sprake van aanhoudende hitte.Besteed extra zorg en aandacht aan kwetsbare mensen in uw omgeving.Met name ouderen en mensen met een chronische aandoening wordt geadviseerd maatregelen te nemen: drink voldoende, houd uzelf en uw woning koel.


Weerstation-Wijk.nl. Voor het weer van Wijk bij Duurstede en omstreken



Webcam Weerstation-Wijk Meer informatie Webcam Weerstation-Wijk


Bezoek ook deze websites:

Template documentation
and downloads

And another site



METAR rapporten vliegvelden

   
EHVK - Volkel Rnlafb, Netherlands
Afstand tot: ZW 18 km
Gewijzigd: Aug 11 2020 5:25 am
Bewolking  
Bewolking  
   Wind: ONO 9.3 km/h
Wind: ONO 9.3 km/h
Temperatuur: 20°C
Dauwpunt: 17°C
Vochtigheid: 83%
Barometer: 1014 hPa
Bewolking: Bewolking
Zicht: meer dan 10 km
Bewolking: Bewolking 37000 ft
EHVK 110325Z AUTO 06005KT 9999 OVC370 20/17 Q1014 BLU
EDLV - Niederrhein, Germany
Afstand tot: ZO 25 km
Gewijzigd: Aug 11 2020 5:20 am
Helder  
Helder  
   Wind: Oosten 9.3 km/h
Wind: Oosten 9.3 km/h
Temperatuur: 22°C
Dauwpunt: 17°C
Vochtigheid: 73%
Barometer: 1014 hPa
Zicht: meer dan 10 km
Bewolking: Helder
EDLV 110320Z 08005KT 020V130 CAVOK 22/17 Q1014
EHDL - Deelen Rnlafb, Netherlands
Afstand tot: N 35 km
Gewijzigd: Aug 11 2020 5:25 am
Bewolking  
Bewolking  
   Wind: ONO 11.1 km/h
Wind: ONO 11.1 km/h
Temperatuur: 21°C
Dauwpunt: 16°C
Vochtigheid: 73%
Barometer: 1015 hPa
Bewolking: Bewolking
Zicht: meer dan 10 km
Bewolking: Bewolking 36000 ft
EHDL 110325Z AUTO 06006KT 360V140 9999 OVC360 21/16 Q1015 BLU
EHEH - Eindhoven Rnlafb, Netherlands
Afstand tot: ZW 48 km
Gewijzigd: Aug 11 2020 5:25 am
Bewolking  
Bewolking  
   Wind: NO 11.1 km/h
Wind: NO 11.1 km/h
Temperatuur: 21°C
Dauwpunt: 17°C
Vochtigheid: 78%
Barometer: 1014 hPa
Bewolking: Bewolking
Zicht: meer dan 10 km
Bewolking: Bewolking 36000 ft
EHEH 110325Z AUTO 04006KT 9999 OVC360 21/17 Q1014 BLU
EHGR - Gilze-Rijen Rnla, Netherlands
Afstand tot: WZW 70 km
Gewijzigd: Aug 11 2020 5:25 am
Bewolking  
Bewolking  
   Wind: NO 5.6 km/h
Wind: NO 5.6 km/h
Temperatuur: 20°C
Dauwpunt: 17°C
Vochtigheid: 83%
Barometer: 1014 hPa
Bewolking: Bewolking
Zicht: meer dan 10 km
Bewolking: Bewolking 37000 ft
EHGR 110325Z AUTO 05003KT 020V100 9999 OVC370 20/17 Q1014 BLU
EBBL - Kleine-Brogel(Ba, Belgium
Afstand tot: ZZW 71 km
Gewijzigd: Aug 11 2020 5:25 am
Helder  
Helder  
   Wind: varieert 3.7 km/h
Wind: varieert 3.7 km/h
Temperatuur: 19°C
Dauwpunt: 17°C
Vochtigheid: 88%
Barometer: 1013 hPa
Bewolking: Helder
Zicht: meer dan 10 km
Bewolking: Helder
EBBL 110325Z AUTO VRB02KT 9999 NCD 19/17 Q1013 BLU

Script ontwikkeld door  Saratoga-weather.org Aangepast voor de template door  Weerstation Leuven

U vindt ons ook hier:

UK Metoffice

WeatherCloud

AWEKAS

Apparatuur in gebruik:

Weerstation
Davis VP2

Weerprogramma
Weather Display

Webleverancier
WebReus.nl

Davis VP2

Weather Display

WebReus.nl


Weerstation-Wijk.nl. Voor het weer van Wijk bij Duurstede en omstreken